Delta Virtual Airport Information Service

Kansas City International Airport

ICAO: KMCI Country: United States
Latitude: 39.2976 Longitude: -94.7139
Latest Arrival : SWA2911 (A) (KBWI-KMCI) Latest Departure : AAL1098 (KMCI-KDFW)


WX CaptureLIVE
Data provided by noaa.gov | Fetched at 14:06:55

METAR : KMCI 151853Z 03014KT 10SM FEW025 SCT055 28/18 A3006 RMK AO2 SLP167 T02830178

TAF : KMCI 151723Z 1518/1618 01013KT P6SM SKC FM160100 VRB03KT P6SM SKC FM161400 VRB03KT P6SM BKN250


Runway Data for KMCI
Data provided by openaviationdata.com

Runway ID Mag Var Hdg Length Elevation Surface ILS Freq ILS Id ILS Slope
01L 4 10810 ft 1026 ft Concrete 110.5 IDOT 3
01R 4 9507 ft 1026 ft Concrete 110.75 IPVL 3
9 4 91° 9487 ft 1026 ft Asphalt 109.7 IRNI 3
19L 4 188° 9507 ft 1026 ft Concrete 109.55 IDYH 3
19R 4 188° 10810 ft 1026 ft Concrete 109.1 IPAJ 3
27 4 271° 9487 ft 1026 ft Asphalt 109.7 IUQY 3

Kansas City International Airport, United States
Use only for reference purposes



Not for navigational purposes.